Time;durP1;ratioP1;P1;durP2;ratioP2;P2;SDS_P1;SDS_P2;PMS_P1;PMS_P2;Temp;Humidity;BMP_temperature;BMP_pressure;BME280_temperature;BME280_humidity;BME280_pressure;Samples;Min_cycle;Max_cycle;Signal;HPM_P1;HPM_P2
2021/09/26 00:00:22;;;;;;;9.75;4.15;;;;;;;12.37;82.45;100081.13;1708235;82;21192;-80
2021/09/26 00:03:28;;;;;;;9.93;3.98;;;;;;;12.37;82.68;100079.77;1706923;84;21315;-80
2021/09/26 00:06:33;;;;;;;13.68;4.05;;;;;;;12.36;82.88;100071.21;1706700;84;22191;-80
2021/09/26 00:09:38;;;;;;;8.10;3.60;;;;;;;12.35;83.13;100070.89;1705893;84;21291;-80
2021/09/26 00:12:44;;;;;;;9.85;3.80;;;;;;;12.32;83.40;100074.02;1705849;84;21192;-78
2021/09/26 00:15:51;;;;;;;13.58;3.95;;;;;;;12.30;83.78;100073.38;1706657;84;21283;-81
2021/09/26 00:18:55;;;;;;;19.55;4.53;;;;;;;12.31;84.16;100075.06;1706390;84;21188;-78
2021/09/26 00:22:00;;;;;;;11.00;4.50;;;;;;;12.32;84.43;100071.80;1706134;84;21355;-80
2021/09/26 00:25:06;;;;;;;13.20;4.20;;;;;;;12.33;84.80;100068.00;1705224;84;21336;-80
2021/09/26 00:28:12;;;;;;;13.20;3.83;;;;;;;12.36;85.10;100072.58;1705591;84;21327;-78
2021/09/26 00:31:18;;;;;;;11.25;3.98;;;;;;;12.39;85.33;100070.84;1706706;84;21255;-80
2021/09/26 00:34:23;;;;;;;12.88;4.30;;;;;;;12.41;85.46;100059.13;1706516;84;21311;-79
2021/09/26 00:37:28;;;;;;;13.40;4.97;;;;;;;12.44;85.62;100061.50;1705378;84;21322;-79
2021/09/26 00:40:33;;;;;;;13.70;4.05;;;;;;;12.47;85.68;100048.78;1705207;84;21374;-79
2021/09/26 00:43:39;;;;;;;12.65;3.75;;;;;;;12.50;85.79;100053.02;1705292;84;21209;-80
2021/09/26 00:46:44;;;;;;;12.18;4.67;;;;;;;12.50;85.80;100056.59;1706307;84;21227;-78
2021/09/26 00:49:50;;;;;;;19.40;4.92;;;;;;;12.52;85.91;100056.42;1706196;84;21244;-78
2021/09/26 00:52:55;;;;;;;11.65;4.65;;;;;;;12.53;86.06;100056.22;1705462;84;21841;-80
2021/09/26 00:56:05;;;;;;;17.90;4.78;;;;;;;12.54;86.24;100059.28;1706302;84;21267;-78
2021/09/26 00:59:10;;;;;;;13.72;5.10;;;;;;;12.57;86.33;100056.69;1706729;84;21168;-78
2021/09/26 01:02:15;;;;;;;13.35;4.95;;;;;;;12.59;86.47;100061.97;1706689;82;21172;-78
2021/09/26 01:05:21;;;;;;;11.48;5.03;;;;;;;12.59;86.59;100050.99;1706142;84;21296;-79
2021/09/26 01:08:35;;;;;;;15.20;5.10;;;;;;;12.61;86.78;100061.23;1706998;84;21314;-79
2021/09/26 01:11:54;;;;;;;20.17;5.65;;;;;;;12.60;86.98;100054.91;1706808;84;21295;-78
2021/09/26 01:15:42;;;;;;;22.32;5.55;;;;;;;12.63;87.23;100064.66;1705597;84;21284;-80
2021/09/26 01:18:57;;;;;;;17.95;5.62;;;;;;;12.63;87.43;100064.13;1705351;84;21350;-79
2021/09/26 01:22:12;;;;;;;11.40;5.00;;;;;;;12.66;87.61;100071.13;1705445;84;21303;-80
2021/09/26 01:25:32;;;;;;;16.00;5.65;;;;;;;12.67;87.78;100061.84;1705122;84;21254;-80
2021/09/26 01:29:08;;;;;;;14.80;5.40;;;;;;;12.69;87.95;100065.23;1698727;84;21292;-79
2021/09/26 01:32:14;;;;;;;13.90;5.40;;;;;;;12.70;88.06;100064.17;1677675;85;21319;-78
2021/09/26 01:35:19;;;;;;;16.45;5.72;;;;;;;12.69;88.17;100061.96;1679069;85;21839;-80
2021/09/26 01:38:35;;;;;;;17.95;6.40;;;;;;;12.70;88.29;100061.44;1676884;85;21348;-80
2021/09/26 01:42:06;;;;;;;20.15;6.83;;;;;;;12.70;88.41;100058.69;1676798;85;21884;-78
2021/09/26 01:45:38;;;;;;;15.08;5.83;;;;;;;12.70;88.54;100047.71;1678185;84;21277;-80
2021/09/26 01:49:06;;;;;;;13.95;5.87;;;;;;;12.72;88.67;100052.50;1678440;85;21655;-81
2021/09/26 01:52:11;;;;;;;12.25;5.45;;;;;;;12.72;88.80;100056.09;1677626;85;21323;-80
2021/09/26 01:55:16;;;;;;;13.13;5.62;;;;;;;12.73;89.01;100057.78;1678101;85;21278;-80
2021/09/26 01:58:22;;;;;;;15.08;6.17;;;;;;;12.74;89.17;100054.52;1676828;84;21213;-78
2021/09/26 02:01:29;;;;;;;13.70;6.28;;;;;;;12.73;89.38;100050.92;1678398;84;21197;-78
2021/09/26 02:04:35;;;;;;;18.10;6.42;;;;;;;12.75;89.56;100052.09;1678380;85;21284;-80
2021/09/26 02:07:44;;;;;;;20.62;6.87;;;;;;;12.76;89.75;100049.69;1677426;85;21779;-80
2021/09/26 02:10:49;;;;;;;17.50;7.10;;;;;;;12.79;89.92;100056.14;1677907;85;21348;-80
2021/09/26 02:13:55;;;;;;;12.78;6.03;;;;;;;12.81;90.15;100061.45;1687487;84;21272;-78
2021/09/26 02:17:01;;;;;;;16.87;7.25;;;;;;;12.82;90.30;100058.50;1707022;84;22305;-78
2021/09/26 02:20:08;;;;;;;13.03;6.30;;;;;;;12.82;90.43;100059.88;1707008;84;21283;-79
2021/09/26 02:23:13;;;;;;;21.73;7.15;;;;;;;12.83;90.48;100056.08;1706842;84;21646;-79
2021/09/26 02:26:18;;;;;;;17.17;7.78;;;;;;;12.85;90.62;100060.86;1706553;84;21865;-81
2021/09/26 02:29:23;;;;;;;20.65;7.72;;;;;;;12.87;90.79;100066.99;1706639;84;21324;-80
2021/09/26 02:32:27;;;;;;;15.60;7.62;;;;;;;12.88;90.92;100061.82;1706324;83;21275;-78
2021/09/26 02:35:32;;;;;;;22.20;8.38;;;;;;;12.89;91.08;100058.05;1706650;84;21193;-80
2021/09/26 02:38:38;;;;;;;19.95;8.15;;;;;;;12.92;91.17;100062.28;1706604;84;21225;-78
2021/09/26 02:42:05;;;;;;;15.78;7.33;;;;;;;12.95;91.27;100057.78;1706217;84;21719;-79
2021/09/26 02:45:36;;;;;;;24.15;8.25;;;;;;;12.98;91.32;100060.11;1706646;84;21259;-80
2021/09/26 02:48:45;;;;;;;22.90;8.63;;;;;;;12.99;91.37;100053.59;1706812;84;21211;-80
2021/09/26 02:51:50;;;;;;;19.73;7.75;;;;;;;13.00;91.46;100062.16;1706747;84;21311;-78
2021/09/26 02:54:55;;;;;;;16.52;8.13;;;;;;;13.00;91.54;100060.78;1706872;84;21271;-81
2021/09/26 02:58:00;;;;;;;22.93;9.03;;;;;;;12.99;91.63;100058.56;1706739;84;21318;-78
2021/09/26 03:01:06;;;;;;;21.37;8.78;;;;;;;13.01;91.76;100062.47;1706563;84;21834;-80
2021/09/26 03:04:14;;;;;;;14.78;7.70;;;;;;;13.02;91.90;100058.14;1706953;82;21236;-79
2021/09/26 03:07:20;;;;;;;25.08;8.73;;;;;;;13.03;92.01;100059.87;1706555;84;21299;-80
2021/09/26 03:10:27;;;;;;;15.68;8.25;;;;;;;13.04;92.12;100060.19;1706872;84;21183;-81
2021/09/26 03:13:32;;;;;;;16.05;7.83;;;;;;;13.05;92.21;100063.78;1706770;84;21272;-80
2021/09/26 03:16:38;;;;;;;18.12;8.45;;;;;;;13.04;92.31;100056.06;1705017;84;21322;-78
2021/09/26 03:19:43;;;;;;;20.10;8.50;;;;;;;13.04;92.40;100055.22;1705284;84;21237;-80
2021/09/26 03:22:50;;;;;;;25.37;7.65;;;;;;;13.05;92.60;100062.41;1705463;84;21303;-80
2021/09/26 03:25:55;;;;;;;20.60;8.40;;;;;;;13.05;92.66;100059.12;1706619;84;21161;-80
2021/09/26 03:29:01;;;;;;;18.90;8.13;;;;;;;13.07;92.79;100062.20;1706428;84;21287;-78
2021/09/26 03:32:06;;;;;;;20.90;9.03;;;;;;;13.07;92.89;100064.41;1706097;84;21196;-78
2021/09/26 03:35:12;;;;;;;19.92;8.78;;;;;;;13.08;92.99;100069.38;1706629;84;21273;-78
2021/09/26 03:38:18;;;;;;;15.10;7.80;;;;;;;13.09;93.12;100076.59;1705958;84;21251;-80
2021/09/26 03:41:23;;;;;;;19.07;8.58;;;;;;;13.08;93.29;100073.00;1706534;84;21253;-78
2021/09/26 03:44:28;;;;;;;18.27;8.13;;;;;;;13.09;93.47;100077.44;1706693;84;21369;-80
2021/09/26 03:47:33;;;;;;;26.07;9.00;;;;;;;13.09;93.61;100079.34;1705844;84;21335;-79
2021/09/26 03:50:38;;;;;;;22.82;9.00;;;;;;;13.09;93.77;100077.97;1706593;84;21824;-80
2021/09/26 03:53:44;;;;;;;15.32;9.13;;;;;;;13.11;93.90;100081.34;1705304;84;21841;-81
2021/09/26 03:56:49;;;;;;;18.95;8.55;;;;;;;13.12;94.08;100084.41;1705367;84;21308;-78
2021/09/26 03:59:54;;;;;;;18.70;8.63;;;;;;;13.14;94.29;100085.08;1705453;84;21154;-78
2021/09/26 04:03:03;;;;;;;20.60;9.18;;;;;;;13.15;94.48;100085.40;1704008;84;21216;-80
2021/09/26 04:06:10;;;;;;;16.93;9.83;;;;;;;13.17;94.63;100085.51;1719125;83;21878;-79
2021/09/26 04:09:15;;;;;;;31.37;10.63;;;;;;;13.17;94.89;100086.03;1707207;84;21279;-80
2021/09/26 04:12:20;;;;;;;25.37;9.20;;;;;;;13.17;95.05;100088.78;1689265;85;21908;-79
2021/09/26 04:15:26;;;;;;;25.95;10.15;;;;;;;13.19;95.14;100084.81;1693230;83;21211;-78
2021/09/26 04:18:32;;;;;;;15.60;9.13;;;;;;;13.19;95.19;100086.17;1652663;87;21351;-79
2021/09/26 04:21:37;;;;;;;22.67;8.75;;;;;;;13.21;95.28;100081.33;1652449;87;21212;-78
2021/09/26 04:24:43;;;;;;;18.37;9.15;;;;;;;13.24;95.34;100081.50;1663433;86;21232;-80
2021/09/26 04:27:47;;;;;;;19.10;9.33;;;;;;;13.24;95.42;100080.97;1692317;84;21800;-78
2021/09/26 04:30:53;;;;;;;24.25;8.55;;;;;;;13.25;95.59;100089.53;1650959;87;21292;-79
2021/09/26 04:33:58;;;;;;;24.02;9.45;;;;;;;13.27;95.77;100086.08;1662384;86;21798;-79
2021/09/26 04:37:04;;;;;;;19.20;8.33;;;;;;;13.33;95.85;100091.81;1693145;84;21251;-81
2021/09/26 04:40:09;;;;;;;24.23;10.13;;;;;;;13.37;95.84;100084.87;1706845;84;21732;-78
2021/09/26 04:43:14;;;;;;;21.75;9.15;;;;;;;13.42;95.82;100080.48;1708682;82;21312;-78
2021/09/26 04:46:19;;;;;;;15.15;8.88;;;;;;;13.50;95.72;100080.33;1733284;83;21184;-80
2021/09/26 04:49:28;;;;;;;18.10;8.73;;;;;;;13.56;95.52;100081.42;1731862;83;21283;-78
2021/09/26 04:52:33;;;;;;;19.42;8.03;;;;;;;13.62;95.30;100091.59;1731767;83;21316;-81
2021/09/26 04:55:38;;;;;;;16.02;8.63;;;;;;;13.67;95.04;100089.62;1731752;83;21544;-78
2021/09/26 04:58:43;;;;;;;16.48;8.83;;;;;;;13.70;94.92;100092.81;1731632;83;21224;-79
2021/09/26 05:01:48;;;;;;;16.52;8.10;;;;;;;13.74;94.80;100087.77;1731545;83;21208;-80
2021/09/26 05:04:54;;;;;;;12.80;7.67;;;;;;;13.80;94.90;100096.05;1731327;83;21296;-80
2021/09/26 05:07:59;;;;;;;16.73;7.75;;;;;;;13.86;95.17;100092.16;1731933;83;21643;-79
2021/09/26 05:11:05;;;;;;;13.05;7.55;;;;;;;13.90;95.63;100101.70;1732942;83;21161;-78
2021/09/26 05:14:10;;;;;;;14.10;8.55;;;;;;;13.92;95.96;100102.34;1732196;83;21877;-79
2021/09/26 05:17:16;;;;;;;14.83;8.33;;;;;;;13.93;96.20;100108.19;1732520;83;21626;-79
2021/09/26 05:20:21;;;;;;;23.90;8.50;;;;;;;13.92;96.58;100102.34;1731616;83;21339;-80
2021/09/26 05:23:27;;;;;;;18.57;9.05;;;;;;;13.94;96.87;100098.88;1731801;83;21787;-80
2021/09/26 05:26:33;;;;;;;18.02;8.50;;;;;;;13.98;97.20;100103.77;1733074;83;21841;-80
2021/09/26 05:29:40;;;;;;;16.32;8.65;;;;;;;14.05;97.44;100098.29;1731424;83;21339;-78
2021/09/26 05:32:45;;;;;;;18.55;8.03;;;;;;;14.14;97.36;100098.97;1730651;83;21201;-78
2021/09/26 05:35:51;;;;;;;13.68;7.37;;;;;;;14.22;97.21;100104.30;1731370;83;21706;-80
2021/09/26 05:38:56;;;;;;;13.43;8.30;;;;;;;14.28;97.11;100107.59;1731414;83;21356;-80
2021/09/26 05:42:06;;;;;;;18.07;8.50;;;;;;;14.34;96.80;100102.64;1730174;83;21268;-80
2021/09/26 05:45:09;;;;;;;16.30;9.58;;;;;;;14.41;96.66;100104.91;1731562;83;21308;-80
2021/09/26 05:48:13;;;;;;;12.90;7.85;;;;;;;14.52;96.27;100102.95;1731715;83;21323;-80
2021/09/26 05:51:19;;;;;;;16.90;8.18;;;;;;;14.62;95.72;100102.55;1733048;83;21272;-79
2021/09/26 05:54:24;;;;;;;14.10;7.97;;;;;;;14.69;95.10;100099.84;1732599;83;21323;-80
2021/09/26 05:57:29;;;;;;;13.13;7.95;;;;;;;14.74;94.56;100111.06;1732543;83;21696;-80
2021/09/26 06:00:35;;;;;;;12.68;7.35;;;;;;;14.78;94.22;100114.57;1732264;83;21378;-81
2021/09/26 06:03:41;;;;;;;15.53;9.33;;;;;;;14.87;93.93;100109.72;1733021;83;21333;-81
2021/09/26 06:06:47;;;;;;;11.45;7.33;;;;;;;14.97;93.46;100112.06;1727991;83;21809;-80
2021/09/26 06:09:53;;;;;;;12.23;7.97;;;;;;;15.08;92.90;100117.78;1722175;83;21800;-79
2021/09/26 06:12:58;;;;;;;13.08;8.38;;;;;;;15.19;92.23;100123.19;1689977;85;21226;-81
2021/09/26 06:16:04;;;;;;;12.43;6.70;;;;;;;15.28;91.86;100116.95;1708691;84;21760;-82
2021/09/26 06:19:09;;;;;;;12.20;7.25;;;;;;;15.38;91.27;100119.28;1689851;85;21293;-79
2021/09/26 06:22:15;;;;;;;18.40;7.78;;;;;;;15.48;90.83;100115.55;1708857;84;21306;-81
2021/09/26 06:25:20;;;;;;;12.93;7.40;;;;;;;15.62;90.46;100109.50;1671127;86;21827;-81
2021/09/26 06:28:26;;;;;;;12.18;6.95;;;;;;;15.76;89.86;100104.31;1737156;82;21299;-80
2021/09/26 06:31:31;;;;;;;13.35;7.45;;;;;;;15.90;88.73;100104.59;1735999;82;21324;-80
2021/09/26 06:34:37;;;;;;;19.92;8.13;;;;;;;16.01;87.72;100112.23;1736740;82;21356;-79
2021/09/26 06:37:42;;;;;;;9.98;6.20;;;;;;;16.04;87.31;100109.05;1735530;82;21311;-80
2021/09/26 06:40:47;;;;;;;12.55;6.95;;;;;;;16.13;86.79;100110.16;1735487;82;21761;-81
2021/09/26 06:43:53;;;;;;;8.43;5.25;;;;;;;16.20;86.68;100107.71;1736843;82;21327;-79
2021/09/26 06:46:57;;;;;;;16.17;6.70;;;;;;;16.32;86.51;100107.86;1736476;82;21304;-82
2021/09/26 06:50:02;;;;;;;11.38;6.90;;;;;;;16.47;86.03;100115.89;1736831;82;21873;-81
2021/09/26 06:53:08;;;;;;;10.53;6.90;;;;;;;16.56;85.20;100111.27;1735722;82;21232;-78
2021/09/26 06:56:13;;;;;;;9.98;6.72;;;;;;;16.60;83.90;100111.12;1735813;82;21284;-79
2021/09/26 06:59:20;;;;;;;7.65;5.25;;;;;;;16.66;83.76;100111.34;1737016;82;21280;-79
2021/09/26 07:02:26;;;;;;;16.27;6.62;;;;;;;16.77;83.02;100118.40;1735843;82;21391;-81
2021/09/26 07:05:31;;;;;;;10.40;5.75;;;;;;;16.86;82.09;100118.45;1735808;82;21378;-82
2021/09/26 07:08:36;;;;;;;9.43;6.55;;;;;;;16.96;81.87;100116.58;1736362;82;21327;-81
2021/09/26 07:11:41;;;;;;;7.95;5.60;;;;;;;17.03;81.98;100113.25;1736688;82;21350;-78
2021/09/26 07:14:45;;;;;;;7.58;5.00;;;;;;;17.06;81.27;100110.02;1736083;82;21299;-81
2021/09/26 07:17:53;;;;;;;14.80;5.70;;;;;;;17.03;80.57;100123.43;1736041;82;21299;-81
2021/09/26 07:20:58;;;;;;;9.28;5.37;;;;;;;16.95;79.93;100106.61;1736990;82;21790;-82
2021/09/26 07:24:04;;;;;;;9.38;5.78;;;;;;;17.01;80.10;100120.06;1737079;82;21166;-78
2021/09/26 07:27:09;;;;;;;15.65;5.15;;;;;;;17.10;79.05;100113.19;1736712;82;21327;-80
2021/09/26 07:30:15;;;;;;;7.45;4.20;;;;;;;17.21;78.70;100106.94;1734977;82;21300;-81
2021/09/26 07:33:20;;;;;;;9.38;4.55;;;;;;;17.31;76.31;100110.58;1734416;82;21319;-81
2021/09/26 07:36:25;;;;;;;8.48;4.67;;;;;;;17.36;75.76;100113.50;1734277;82;21880;-79
2021/09/26 07:39:30;;;;;;;6.92;4.33;;;;;;;17.46;75.42;100105.58;1735407;82;21171;-82
2021/09/26 07:42:36;;;;;;;6.67;3.92;;;;;;;17.62;75.46;100101.37;1734015;82;21253;-80
2021/09/26 07:45:42;;;;;;;6.92;4.42;;;;;;;17.74;74.62;100103.75;1698528;84;21175;-82
2021/09/26 07:48:47;;;;;;;8.35;4.30;;;;;;;17.80;73.81;100101.98;1699709;84;21192;-79
2021/09/26 07:51:52;;;;;;;7.10;4.17;;;;;;;17.83;72.21;100109.80;1699201;84;21309;-79
2021/09/26 07:54:57;;;;;;;10.78;4.58;;;;;;;17.90;72.60;100112.52;1699705;84;21260;-82
2021/09/26 07:58:03;;;;;;;13.15;4.65;;;;;;;18.03;72.59;100120.14;1698326;84;21326;-79
2021/09/26 08:01:08;;;;;;;5.80;4.10;;;;;;;18.18;70.99;100119.76;1707356;84;21209;-80
2021/09/26 08:04:15;;;;;;;7.60;3.65;;;;;;;18.26;70.52;100124.16;1707672;84;21173;-82
2021/09/26 08:07:21;;;;;;;8.55;4.03;;;;;;;18.31;71.36;100131.22;1706578;84;21770;-81
2021/09/26 08:10:27;;;;;;;7.25;4.00;;;;;;;18.44;70.71;100117.19;1705319;84;21932;-79
2021/09/26 08:13:33;;;;;;;7.62;3.80;;;;;;;18.51;70.18;100112.42;1713058;82;21288;-81
2021/09/26 08:16:39;;;;;;;11.15;4.20;;;;;;;18.50;69.03;100107.12;1735760;82;21216;-82
2021/09/26 08:19:47;;;;;;;10.80;3.75;;;;;;;18.55;69.19;100108.11;1736951;82;21157;-82
2021/09/26 08:22:54;;;;;;;6.65;3.52;;;;;;;18.69;69.33;100109.36;1735593;81;21208;-81
2021/09/26 08:26:01;;;;;;;9.55;3.70;;;;;;;18.75;67.87;100116.72;1735528;81;21239;-82
2021/09/26 08:29:06;;;;;;;7.22;3.62;;;;;;;18.69;67.29;100124.59;1736807;82;21210;-79
2021/09/26 08:32:13;;;;;;;12.58;4.08;;;;;;;18.55;67.61;100106.73;1735701;82;21200;-81
2021/09/26 08:35:19;;;;;;;3.98;3.05;;;;;;;18.39;67.76;100104.58;1736987;82;21228;-79
2021/09/26 08:38:25;;;;;;;5.97;3.08;;;;;;;18.25;66.81;100112.20;1735694;82;21731;-81
2021/09/26 08:41:30;;;;;;;9.63;3.92;;;;;;;18.10;67.08;100109.83;1737078;82;21308;-81
2021/09/26 08:44:36;;;;;;;8.50;3.77;;;;;;;17.96;67.74;100112.44;1736939;82;21283;-80
2021/09/26 08:47:42;;;;;;;7.80;3.83;;;;;;;17.99;68.93;100103.69;1736150;82;21306;-80
2021/09/26 08:50:49;;;;;;;4.40;3.08;;;;;;;18.14;68.78;100106.06;1735040;82;21604;-82
2021/09/26 08:53:54;;;;;;;5.80;3.05;;;;;;;18.25;60.88;100110.82;1735452;82;21173;-81
2021/09/26 08:57:00;;;;;;;5.70;2.87;;;;;;;18.26;62.00;100114.46;1735587;82;21201;-80
2021/09/26 09:00:05;;;;;;;6.70;2.80;;;;;;;18.17;61.80;100122.77;1737041;82;21825;-81
2021/09/26 09:03:09;;;;;;;5.92;3.35;;;;;;;18.16;62.95;100112.75;1736712;82;21308;-79
2021/09/26 09:06:15;;;;;;;5.03;2.92;;;;;;;18.20;64.36;100112.59;1736789;82;21161;-79
2021/09/26 09:09:27;;;;;;;6.25;3.35;;;;;;;18.22;64.66;100127.07;1736613;82;21304;-80
2021/09/26 09:12:41;;;;;;;6.97;3.08;;;;;;;18.23;63.74;100107.99;1705749;84;21303;-82
2021/09/26 09:15:56;;;;;;;5.40;2.87;;;;;;;18.20;62.48;100111.21;1706345;84;21825;-81
2021/09/26 09:19:02;;;;;;;9.10;3.70;;;;;;;18.13;62.96;100114.91;1706662;84;21544;-81
2021/09/26 09:22:17;;;;;;;5.92;2.60;;;;;;;18.02;62.61;100112.92;1706139;84;21857;-81
2021/09/26 09:25:42;;;;;;;8.63;3.17;;;;;;;17.96;59.14;100131.80;1705651;84;21363;-81
2021/09/26 09:28:47;;;;;;;8.03;3.17;;;;;;;17.85;58.78;100125.11;1706790;84;21161;-81
2021/09/26 09:31:59;;;;;;;5.05;2.80;;;;;;;17.71;60.07;100117.99;1707594;84;21140;-79
2021/09/26 09:35:04;;;;;;;10.58;2.95;;;;;;;17.74;61.72;100131.95;1704988;84;21276;-81
2021/09/26 09:38:08;;;;;;;15.08;3.45;;;;;;;17.91;60.43;100110.89;1705558;84;21840;-81
2021/09/26 09:41:14;;;;;;;6.67;2.60;;;;;;;18.05;57.91;100122.67;1706523;84;21287;-82
2021/09/26 09:44:20;;;;;;;7.65;2.77;;;;;;;18.19;57.39;100115.91;1706724;84;21137;-79
2021/09/26 09:47:25;;;;;;;4.47;2.60;;;;;;;18.20;57.06;100125.05;1706827;84;21319;-81
2021/09/26 09:50:34;;;;;;;6.08;2.72;;;;;;;18.16;56.98;100118.28;1706849;84;21630;-80
2021/09/26 09:53:48;;;;;;;8.23;3.10;;;;;;;18.21;58.69;100114.28;1706910;84;21165;-79
2021/09/26 09:56:53;;;;;;;12.07;3.37;;;;;;;18.34;57.00;100105.82;1706728;84;21326;-81
2021/09/26 09:59:57;;;;;;;9.60;2.40;;;;;;;18.40;55.21;100109.06;1706556;84;21287;-82
2021/09/26 10:03:02;;;;;;;7.33;3.00;;;;;;;18.38;52.81;100109.28;1705485;84;21208;-81
2021/09/26 10:06:08;;;;;;;12.78;3.08;;;;;;;18.35;54.02;100110.30;1706573;84;21260;-82
2021/09/26 10:09:34;;;;;;;9.33;2.60;;;;;;;18.44;56.12;100103.88;1705353;84;21598;-81
2021/09/26 10:12:40;;;;;;;5.42;2.58;;;;;;;18.68;53.85;100103.45;1735676;82;21979;-80
2021/09/26 10:15:47;;;;;;;12.28;3.10;;;;;;;18.97;52.17;100105.97;1736380;82;21567;-81
2021/09/26 10:18:52;;;;;;;8.10;2.67;;;;;;;19.16;52.25;100104.81;1736156;82;21280;-81
2021/09/26 10:21:58;;;;;;;7.53;2.45;;;;;;;19.24;49.88;100136.88;1736571;82;21370;-81
2021/09/26 10:25:05;;;;;;;11.38;3.02;;;;;;;19.20;49.04;100101.87;1737034;82;21335;-82
2021/09/26 10:28:10;;;;;;;7.28;2.55;;;;;;;19.12;50.29;100100.82;1735680;82;21327;-79
2021/09/26 10:31:15;;;;;;;9.78;2.72;;;;;;;19.00;51.09;100120.17;1735831;82;21845;-81
2021/09/26 10:34:20;;;;;;;9.58;2.65;;;;;;;18.83;50.49;100110.86;1736846;82;21264;-81
2021/09/26 10:37:26;;;;;;;7.53;2.62;;;;;;;18.63;50.56;100111.08;1736357;82;21296;-82
2021/09/26 10:40:31;;;;;;;9.95;3.05;;;;;;;18.53;50.98;100116.33;1737097;82;21197;-81
2021/09/26 10:43:37;;;;;;;5.40;2.40;;;;;;;18.54;50.76;100110.59;1737000;82;21186;-80
2021/09/26 10:46:42;;;;;;;6.30;2.50;;;;;;;18.63;49.71;100099.48;1736190;82;21276;-79
2021/09/26 10:49:58;;;;;;;12.33;2.20;;;;;;;18.62;48.53;100118.55;1735970;82;21221;-81
2021/09/26 10:53:07;;;;;;;9.25;2.70;;;;;;;18.55;48.29;100111.42;1735899;82;21201;-81
2021/09/26 10:56:18;;;;;;;9.88;2.35;;;;;;;18.47;47.91;100099.28;1737077;82;21790;-81
2021/09/26 10:59:21;;;;;;;11.18;3.52;;;;;;;18.49;47.77;100102.13;1735969;82;21799;-81
2021/09/26 11:02:34;;;;;;;12.23;2.72;;;;;;;18.65;47.68;100097.31;1735607;82;21323;-81
2021/09/26 11:05:51;;;;;;;10.72;2.85;;;;;;;18.71;48.42;100106.64;1737068;82;21141;-81
2021/09/26 11:09:04;;;;;;;7.60;3.50;;;;;;;18.65;48.00;100113.09;1736181;82;21201;-82
2021/09/26 11:12:09;;;;;;;5.45;2.20;;;;;;;18.55;47.88;100112.81;1734727;82;21319;-81
2021/09/26 11:15:20;;;;;;;7.50;3.30;;;;;;;18.59;48.71;100106.57;1736025;82;21288;-81
2021/09/26 11:18:46;;;;;;;8.40;2.87;;;;;;;18.68;48.80;100114.53;1731687;83;21312;-81
2021/09/26 11:21:54;;;;;;;9.45;3.60;;;;;;;18.74;47.63;100099.80;1732326;83;21291;-81
2021/09/26 11:25:07;;;;;;;11.90;3.25;;;;;;;18.72;47.76;100110.25;1733277;83;21166;-80
2021/09/26 11:28:34;;;;;;;6.62;3.00;;;;;;;18.69;47.98;100113.52;1733023;83;21303;-79
2021/09/26 11:31:49;;;;;;;11.70;3.83;;;;;;;18.63;48.58;100105.54;1733035;83;21387;-80
2021/09/26 11:34:55;;;;;;;7.50;2.80;;;;;;;18.65;48.65;100108.94;1733252;83;21303;-80
2021/09/26 11:38:01;;;;;;;12.30;2.98;;;;;;;18.70;48.05;100104.11;1733173;83;21182;-80
2021/09/26 11:41:10;;;;;;;11.05;3.10;;;;;;;18.67;46.70;100112.85;1731870;83;21273;-79
2021/09/26 11:44:16;;;;;;;9.60;3.05;;;;;;;18.63;45.63;100109.70;1732629;83;21265;-81
2021/09/26 11:47:22;;;;;;;9.83;3.15;;;;;;;18.57;46.11;100123.10;1731697;83;21319;-81
2021/09/26 11:50:28;;;;;;;9.05;3.10;;;;;;;18.55;47.00;100110.88;1730422;83;21375;-79
2021/09/26 11:53:33;;;;;;;11.28;3.72;;;;;;;18.48;46.85;100103.73;1731578;83;21372;-81
2021/09/26 11:56:40;;;;;;;8.10;3.15;;;;;;;18.39;46.36;100112.89;1729943;83;21311;-81
2021/09/26 11:59:47;;;;;;;5.50;2.50;;;;;;;18.41;46.68;100117.67;1711981;83;21352;-80
2021/09/26 12:02:54;;;;;;;12.45;2.87;;;;;;;18.45;46.68;100111.14;1704114;84;21357;-82
2021/09/26 12:06:00;;;;;;;6.53;2.40;;;;;;;18.48;45.87;100109.27;1703769;84;21202;-82
2021/09/26 12:09:05;;;;;;;10.05;2.70;;;;;;;18.50;45.45;100118.20;1703802;84;21313;-80
2021/09/26 12:12:17;;;;;;;7.37;2.60;;;;;;;18.48;45.27;100114.80;1703562;84;21775;-82
2021/09/26 12:15:23;;;;;;;7.03;2.37;;;;;;;18.48;44.99;100110.11;1688189;85;21277;-82
2021/09/26 12:18:32;;;;;;;10.00;3.00;;;;;;;18.56;45.35;100115.34;1691111;84;21886;-79
2021/09/26 12:21:38;;;;;;;7.87;2.90;;;;;;;18.56;45.90;100124.19;1690301;85;21780;-81
2021/09/26 12:24:54;;;;;;;10.20;2.55;;;;;;;18.56;45.21;100143.58;1673380;85;21297;-81
2021/09/26 12:28:02;;;;;;;10.28;2.80;;;;;;;18.49;45.41;100118.75;1689201;85;21321;-80
2021/09/26 12:31:07;;;;;;;13.50;3.15;;;;;;;18.39;45.45;100134.50;1662329;85;22254;-80
2021/09/26 12:34:13;;;;;;;21.70;3.17;;;;;;;18.28;45.81;100144.97;1662410;86;21174;-82
2021/09/26 12:37:29;;;;;;;10.13;2.80;;;;;;;18.21;46.81;100132.27;1662124;86;21329;-82
2021/09/26 12:40:39;;;;;;;13.18;3.27;;;;;;;18.18;47.67;100125.30;1661384;86;21669;-82
2021/09/26 12:44:08;;;;;;;10.75;3.08;;;;;;;18.16;47.66;100130.73;1668877;85;21325;-82
2021/09/26 12:47:19;;;;;;;14.78;3.80;;;;;;;18.16;48.68;100136.27;1690401;85;21929;-79
2021/09/26 12:50:24;;;;;;;9.85;3.05;;;;;;;18.14;47.62;100133.75;1690101;85;21243;-81
2021/09/26 12:53:33;;;;;;;7.30;2.67;;;;;;;18.11;47.19;100141.11;1690253;85;21625;-80
2021/09/26 12:56:37;;;;;;;5.75;2.33;;;;;;;18.09;47.56;100140.52;1690402;85;21321;-81
2021/09/26 12:59:47;;;;;;;5.55;2.47;;;;;;;18.01;46.05;100141.64;1689984;85;21187;-81
2021/09/26 13:03:00;;;;;;;8.05;2.42;;;;;;;17.98;45.80;100144.89;1688996;85;21696;-81
2021/09/26 13:06:08;;;;;;;9.35;3.05;;;;;;;17.90;45.85;100138.27;1689768;85;21330;-82
2021/09/26 13:09:41;;;;;;;8.90;3.02;;;;;;;17.86;46.69;100139.79;1690019;85;21286;-82
2021/09/26 13:12:54;;;;;;;7.25;2.50;;;;;;;17.81;46.43;100132.17;1689389;85;21333;-81
2021/09/26 13:15:56;;;;;;;8.35;2.75;;;;;;;17.85;46.88;100137.56;1713997;82;21295;-81
2021/09/26 13:19:03;;;;;;;11.73;3.60;;;;;;;17.86;46.24;100122.65;1713618;83;21295;-81
2021/09/26 13:22:16;;;;;;;8.68;2.37;;;;;;;17.80;45.72;100130.48;1714142;83;21677;-81
2021/09/26 13:25:28;;;;;;;12.40;3.20;;;;;;;17.76;45.87;100137.55;1688631;85;21328;-81
2021/09/26 13:28:32;;;;;;;5.85;2.52;;;;;;;17.73;46.77;100127.44;1706697;84;21265;-81
2021/09/26 13:31:38;;;;;;;8.63;2.83;;;;;;;17.70;47.17;100130.67;1673718;85;21273;-81
2021/09/26 13:34:44;;;;;;;7.78;2.98;;;;;;;17.65;46.93;100124.98;1705288;84;21303;-82
2021/09/26 13:37:50;;;;;;;8.45;2.70;;;;;;;17.61;46.40;100117.12;1705774;84;21248;-82
2021/09/26 13:40:59;;;;;;;10.80;3.45;;;;;;;17.59;47.11;100106.81;1706288;84;21307;-81
2021/09/26 13:44:23;;;;;;;7.90;3.20;;;;;;;17.61;47.15;100126.80;1689491;84;21551;-81
2021/09/26 13:47:28;;;;;;;8.40;2.92;;;;;;;17.59;46.41;100119.25;1669666;86;21308;-80
2021/09/26 13:50:34;;;;;;;7.75;2.92;;;;;;;17.60;46.34;100132.58;1669163;86;21351;-81
2021/09/26 13:53:39;;;;;;;10.85;3.15;;;;;;;17.59;46.78;100126.17;1631049;88;21202;-80
2021/09/26 13:56:44;;;;;;;6.55;2.60;;;;;;;17.56;46.96;100132.72;1630917;88;21213;-79
2021/09/26 13:59:49;;;;;;;12.98;3.20;;;;;;;17.51;47.24;100132.55;1678762;85;21321;-80
2021/09/26 14:02:56;;;;;;;9.30;3.12;;;;;;;17.46;46.79;100130.46;1706790;84;21331;-80
2021/09/26 14:06:01;;;;;;;10.90;3.85;;;;;;;17.43;47.42;100132.82;1672678;85;21262;-82
2021/09/26 14:09:07;;;;;;;8.45;3.20;;;;;;;17.38;46.93;100122.44;1705548;84;21192;-79
2021/09/26 14:12:12;;;;;;;12.23;3.40;;;;;;;17.33;46.99;100121.73;1705604;84;21184;-80
2021/09/26 14:15:18;;;;;;;9.63;2.80;;;;;;;17.29;47.88;100134.30;1708435;82;21330;-81
2021/09/26 14:18:23;;;;;;;9.65;3.58;;;;;;;17.27;47.53;100120.41;1708329;84;21873;-79
2021/09/26 14:21:29;;;;;;;7.10;2.70;;;;;;;17.24;47.16;100125.84;1709160;84;21789;-80
2021/09/26 14:24:35;;;;;;;7.28;2.75;;;;;;;17.20;47.25;100132.04;1709211;84;21343;-81